createdAt,value
2023-05-06T00:00:00.280Z,100099.78
2023-05-06T00:02:31.248Z,100102.94
2023-05-06T00:05:04.194Z,100082.16
2023-05-06T00:07:35.308Z,100105.53
2023-05-06T00:10:08.595Z,100084.25
2023-05-06T00:12:39.579Z,100080.41
2023-05-06T00:15:13.647Z,100077.00
2023-05-06T00:17:44.286Z,100091.09
2023-05-06T00:20:15.690Z,100069.91
2023-05-06T00:22:46.246Z,100072.25
2023-05-06T00:25:18.463Z,100056.69
2023-05-06T00:27:48.947Z,100078.78
2023-05-06T00:30:19.512Z,100085.69
2023-05-06T00:32:50.030Z,100063.88
2023-05-06T00:35:20.794Z,100077.75
2023-05-06T00:37:58.741Z,100045.91
2023-05-06T00:40:30.925Z,100082.44
2023-05-06T00:43:01.385Z,100083.66
2023-05-06T00:45:32.018Z,100085.28
2023-05-06T00:48:02.657Z,100078.78
2023-05-06T00:50:34.131Z,100085.34
2023-05-06T00:53:06.789Z,100080.00
2023-05-06T00:55:39.214Z,100079.06
2023-05-06T00:58:10.101Z,100031.13
2023-05-06T01:00:41.050Z,100074.28
2023-05-06T01:03:11.602Z,100081.16
2023-05-06T01:05:54.036Z,100046.50
2023-05-06T01:08:32.407Z,100069.34
2023-05-06T01:11:13.508Z,100074.88
2023-05-06T01:13:51.386Z,100034.47
2023-05-06T01:16:26.256Z,100034.81
2023-05-06T01:18:58.658Z,100062.56
2023-05-06T01:21:36.102Z,100059.16
2023-05-06T01:24:08.723Z,100065.88
2023-05-06T01:26:43.283Z,100063.69
2023-05-06T01:29:17.756Z,100069.31
2023-05-06T01:31:53.855Z,100062.72
2023-05-06T01:34:30.950Z,100057.59
2023-05-06T01:37:10.481Z,100038.16
2023-05-06T01:39:44.293Z,100054.25
2023-05-06T01:42:16.730Z,100059.91
2023-05-06T01:44:47.660Z,100050.41
2023-05-06T01:47:19.925Z,100059.97
2023-05-06T01:49:51.163Z,100035.44
2023-05-06T01:52:23.381Z,100049.72
2023-05-06T01:54:55.538Z,100053.75
2023-05-06T01:57:25.961Z,100044.91
2023-05-06T01:59:56.636Z,100031.41
2023-05-06T02:02:27.250Z,100038.41
2023-05-06T02:04:57.764Z,100022.66
2023-05-06T02:07:28.246Z,100029.16
2023-05-06T02:10:00.628Z,100025.94
2023-05-06T02:12:31.117Z,100024.97
2023-05-06T02:15:01.660Z,100020.28
2023-05-06T02:17:32.195Z,100027.63
2023-05-06T02:20:02.611Z,100027.72
2023-05-06T02:22:33.074Z,99995.78
2023-05-06T02:25:05.165Z,100022.19
2023-05-06T02:27:35.585Z,100010.69
2023-05-06T02:30:06.158Z,100017.81
2023-05-06T02:32:36.942Z,100014.44
2023-05-06T02:35:08.401Z,100005.44
2023-05-06T02:37:39.034Z,100024.88
2023-05-06T02:40:12.287Z,100025.72
2023-05-06T02:42:42.891Z,100009.34
2023-05-06T02:45:14.294Z,100015.53
2023-05-06T02:47:44.942Z,100020.44
2023-05-06T02:50:15.463Z,100016.31
2023-05-06T02:52:49.079Z,100022.94
2023-05-06T02:55:21.449Z,100005.38
2023-05-06T02:57:51.896Z,100016.03
2023-05-06T03:00:23.155Z,100017.94
2023-05-06T03:02:53.766Z,100018.63
2023-05-06T03:05:24.336Z,100008.41
2023-05-06T03:07:54.827Z,100017.34
2023-05-06T03:10:27.026Z,100009.97
2023-05-06T03:12:57.513Z,100019.13
2023-05-06T03:15:28.126Z,100009.41
2023-05-06T03:17:58.611Z,99993.63
2023-05-06T03:20:29.732Z,100017.31
2023-05-06T03:23:00.197Z,100013.28
2023-05-06T03:25:32.467Z,100016.97
2023-05-06T03:28:02.923Z,100030.06
2023-05-06T03:30:33.434Z,100020.88
2023-05-06T03:33:04.679Z,100022.97
2023-05-06T03:35:35.330Z,100006.78
2023-05-06T03:38:05.852Z,100010.41
2023-05-06T03:40:38.232Z,100003.75
2023-05-06T03:43:08.646Z,100005.66
2023-05-06T03:45:39.854Z,100007.69
2023-05-06T03:48:10.435Z,100016.41
2023-05-06T03:50:41.190Z,100014.13
2023-05-06T03:53:11.854Z,100016.66
2023-05-06T03:55:44.440Z,99982.44
2023-05-06T03:58:15.042Z,100019.47
2023-05-06T04:00:45.478Z,100015.84
2023-05-06T04:03:16.097Z,100016.97
2023-05-06T04:05:46.661Z,100003.91
2023-05-06T04:08:18.033Z,99918.09
2023-05-06T04:10:50.171Z,99991.34
2023-05-06T04:13:20.679Z,100015.66
2023-05-06T04:15:52.184Z,99968.06
2023-05-06T04:18:23.215Z,100006.53
2023-05-06T04:20:53.577Z,99992.50
2023-05-06T04:23:24.301Z,99994.53
2023-05-06T04:25:56.653Z,99967.06
2023-05-06T04:28:27.222Z,99984.28
2023-05-06T04:30:57.719Z,99932.72
2023-05-06T04:33:28.306Z,100003.59
2023-05-06T04:35:58.886Z,99996.78
2023-05-06T04:38:32.702Z,99992.75
2023-05-06T04:41:04.829Z,99993.94
2023-05-06T04:43:35.325Z,99990.22
2023-05-06T04:46:05.833Z,99976.88
2023-05-06T04:48:36.363Z,100001.31
2023-05-06T04:51:07.355Z,99964.34
2023-05-06T04:53:38.195Z,99983.97
2023-05-06T04:56:10.822Z,99992.19
2023-05-06T04:58:41.192Z,99982.91
2023-05-06T05:01:12.561Z,99956.53
2023-05-06T05:03:43.195Z,99988.97
2023-05-06T05:06:14.223Z,99983.84
2023-05-06T05:08:44.953Z,99985.69
2023-05-06T05:11:17.371Z,99991.03
2023-05-06T05:13:48.050Z,99992.50
2023-05-06T05:16:18.601Z,99962.47
2023-05-06T05:18:49.144Z,99984.28
2023-05-06T05:21:19.629Z,99979.66
2023-05-06T05:23:50.270Z,99994.97
2023-05-06T05:26:22.717Z,99995.41
2023-05-06T05:28:53.162Z,99997.75
2023-05-06T05:31:23.712Z,99991.53
2023-05-06T05:33:54.460Z,99995.41
2023-05-06T05:36:28.550Z,100000.53
2023-05-06T05:38:59.762Z,99993.50
2023-05-06T05:41:38.710Z,99999.81
2023-05-06T05:44:09.660Z,99982.31
2023-05-06T05:46:40.247Z,99989.59
2023-05-06T05:49:10.777Z,99979.03
2023-05-06T05:51:41.315Z,99996.25
2023-05-06T05:54:11.808Z,99958.09
2023-05-06T05:56:43.970Z,99908.72
2023-05-06T05:59:14.351Z,99994.13
2023-05-06T06:01:44.724Z,99988.84
2023-05-06T06:04:15.244Z,99994.88
2023-05-06T06:06:45.776Z,100007.97
2023-05-06T06:09:17.614Z,99984.03
2023-05-06T06:11:49.819Z,99997.13
2023-05-06T06:14:20.369Z,100002.53
2023-05-06T06:17:06.603Z,99997.75
2023-05-06T06:19:37.050Z,100003.97
2023-05-06T06:22:07.479Z,100005.03
2023-05-06T06:24:38.021Z,100006.25
2023-05-06T06:27:10.492Z,100026.31
2023-05-06T06:29:41.102Z,100029.47
2023-05-06T06:32:11.627Z,100027.97
2023-05-06T06:34:42.169Z,100024.25
2023-05-06T06:37:13.625Z,100031.91
2023-05-06T06:39:44.167Z,100024.63
2023-05-06T06:42:16.972Z,100027.34
2023-05-06T06:44:47.555Z,100033.81
2023-05-06T06:47:18.108Z,100033.41
2023-05-06T06:49:48.705Z,100018.63
2023-05-06T06:52:19.244Z,100030.78
2023-05-06T06:54:49.894Z,100019.84
2023-05-06T06:57:22.139Z,100014.41
2023-05-06T06:59:54.529Z,100018.63
2023-05-06T07:02:25.049Z,99962.78
2023-05-06T07:04:55.986Z,100028.44
2023-05-06T07:07:26.532Z,100034.13
2023-05-06T07:10:13.582Z,100032.13
2023-05-06T07:12:45.723Z,100030.19
2023-05-06T07:15:16.243Z,100042.28
2023-05-06T07:17:46.829Z,100044.16
2023-05-06T07:20:17.334Z,100049.50
2023-05-06T07:22:50.427Z,100054.03
2023-05-06T07:25:21.031Z,100048.06
2023-05-06T07:27:53.161Z,100041.94
2023-05-06T07:30:23.672Z,100047.00
2023-05-06T07:32:54.301Z,100049.75
2023-05-06T07:35:24.933Z,100047.59
2023-05-06T07:37:55.393Z,100055.34
2023-05-06T07:40:26.027Z,100049.63
2023-05-06T07:42:58.179Z,100060.59
2023-05-06T07:45:28.708Z,100056.97
2023-05-06T07:47:59.371Z,100076.13
2023-05-06T07:50:29.889Z,100069.28
2023-05-06T07:53:00.995Z,100076.44
2023-05-06T07:55:33.826Z,100073.91
2023-05-06T07:58:07.134Z,100076.66
2023-05-06T08:00:37.648Z,100083.59
2023-05-06T08:03:08.351Z,100085.56
2023-05-06T08:05:39.081Z,100092.84
2023-05-06T08:08:09.607Z,100081.53
2023-05-06T08:10:40.121Z,100091.28
2023-05-06T08:13:12.528Z,100089.69
2023-05-06T08:15:43.527Z,100082.75
2023-05-06T08:18:21.867Z,100082.59
2023-05-06T08:20:53.183Z,100093.97
2023-05-06T08:23:24.007Z,100094.06
2023-05-06T08:25:54.578Z,100092.41
2023-05-06T08:28:26.809Z,100105.38
2023-05-06T08:30:57.367Z,100104.06
2023-05-06T08:33:28.096Z,100093.75
2023-05-06T08:35:58.933Z,100093.91
2023-05-06T08:38:29.747Z,100106.06
2023-05-06T08:41:02.895Z,100096.03
2023-05-06T08:43:38.028Z,100084.88
2023-05-06T08:46:08.799Z,100095.38
2023-05-06T08:48:39.719Z,100099.03
2023-05-06T08:51:10.917Z,100103.44
2023-05-06T08:53:45.181Z,100108.66
2023-05-06T08:56:17.756Z,100069.38
2023-05-06T08:58:51.542Z,100121.19
2023-05-06T09:01:23.089Z,100124.84
2023-05-06T09:03:54.280Z,100109.31
2023-05-06T09:06:29.304Z,100075.13
2023-05-06T09:08:59.913Z,100115.00
2023-05-06T09:11:32.705Z,100112.66
2023-05-06T09:14:22.337Z,100129.34
2023-05-06T09:16:53.813Z,100134.69
2023-05-06T09:19:26.553Z,100130.66
2023-05-06T09:21:57.585Z,100145.63
2023-05-06T09:24:28.336Z,100142.38
2023-05-06T09:26:59.715Z,100061.66
2023-05-06T09:29:31.882Z,100146.56
2023-05-06T09:32:11.222Z,100135.44
2023-05-06T09:34:42.891Z,100157.31
2023-05-06T09:37:13.471Z,100147.91
2023-05-06T09:39:43.999Z,100152.34
2023-05-06T09:42:15.328Z,100144.63
2023-05-06T09:44:47.493Z,100156.88
2023-05-06T09:47:18.206Z,100156.06
2023-05-06T09:49:48.909Z,100180.28
2023-05-06T09:52:20.288Z,100176.81
2023-05-06T09:54:52.993Z,100169.91
2023-05-06T09:57:25.317Z,100169.94
2023-05-06T09:59:58.282Z,100160.50
2023-05-06T10:02:30.271Z,100177.84
2023-05-06T10:05:05.410Z,100180.50
2023-05-06T10:07:36.871Z,100196.09
2023-05-06T10:10:09.610Z,100189.22
2023-05-06T10:12:40.326Z,100194.41
2023-05-06T10:15:13.329Z,100199.63
2023-05-06T10:17:48.336Z,100222.16
2023-05-06T10:20:20.526Z,100231.66
2023-05-06T10:23:02.608Z,100226.50
2023-05-06T10:25:43.351Z,100220.44
2023-05-06T10:28:24.061Z,100234.28
2023-05-06T10:31:03.638Z,100234.25
2023-05-06T10:33:34.324Z,100236.00
2023-05-06T10:36:16.468Z,100259.34
2023-05-06T10:38:50.066Z,100263.66
2023-05-06T10:41:24.588Z,100272.28
2023-05-06T10:44:00.288Z,100267.91
2023-05-06T10:46:41.826Z,100268.75
2023-05-06T10:49:21.810Z,100287.72
2023-05-06T10:52:11.748Z,100291.94
2023-05-06T10:54:55.802Z,100292.69
2023-05-06T10:57:33.544Z,100284.94
2023-05-06T11:00:06.832Z,100291.00
2023-05-06T11:02:41.698Z,100292.75
2023-05-06T11:05:14.017Z,100291.78
2023-05-06T11:07:46.061Z,100300.41
2023-05-06T11:10:17.514Z,100304.63
2023-05-06T11:12:51.029Z,100308.81
2023-05-06T11:15:29.052Z,100300.94
2023-05-06T11:18:02.878Z,100307.91
2023-05-06T11:20:34.355Z,100316.47
2023-05-06T11:23:06.176Z,100316.34
2023-05-06T11:25:44.629Z,100320.59
2023-05-06T11:28:17.348Z,100318.75
2023-05-06T11:30:58.393Z,100316.94
2023-05-06T11:33:35.419Z,100327.16
2023-05-06T11:36:07.604Z,100338.03
2023-05-06T11:38:46.869Z,100343.00
2023-05-06T11:41:18.590Z,100331.66
2023-05-06T11:43:51.450Z,100346.16
2023-05-06T11:46:23.775Z,100263.50
2023-05-06T11:48:57.253Z,100368.50
2023-05-06T11:51:28.277Z,100373.66
2023-05-06T11:54:08.637Z,100352.06
2023-05-06T11:56:55.275Z,100350.16
2023-05-06T11:59:33.663Z,100349.09
2023-05-06T12:02:06.225Z,100308.94
2023-05-06T12:04:46.610Z,100355.59
2023-05-06T12:07:18.764Z,100354.41
2023-05-06T12:09:52.234Z,100353.38
2023-05-06T12:12:27.417Z,100363.41
2023-05-06T12:14:59.213Z,100382.97
2023-05-06T12:17:30.890Z,100314.16
2023-05-06T12:20:04.157Z,100388.91
2023-05-06T12:22:34.948Z,100394.19
2023-05-06T12:25:17.288Z,100393.28
2023-05-06T12:27:49.501Z,100417.38
2023-05-06T12:30:32.689Z,100411.03
2023-05-06T12:33:07.289Z,100419.66
2023-05-06T12:35:39.715Z,100430.53
2023-05-06T12:38:15.224Z,100398.44
2023-05-06T12:40:46.791Z,100406.91
2023-05-06T12:43:17.399Z,100415.19
2023-05-06T12:46:05.010Z,100416.34
2023-05-06T12:48:35.703Z,100421.00
2023-05-06T12:54:01.307Z,100396.56
2023-05-06T12:56:34.831Z,100424.41
2023-05-06T12:59:06.113Z,100363.56
2023-05-06T13:01:40.095Z,100420.63
2023-05-06T13:04:11.328Z,100403.13
2023-05-06T13:06:41.869Z,100412.31
2023-05-06T13:09:15.338Z,100372.59
2023-05-06T13:11:47.206Z,100417.63
2023-05-06T13:14:19.025Z,100420.25
2023-05-06T13:16:49.745Z,100426.34
2023-05-06T13:19:31.692Z,100420.25
2023-05-06T13:22:03.947Z,100417.56
2023-05-06T13:24:36.382Z,100410.47
2023-05-06T13:27:07.169Z,100422.53
2023-05-06T13:29:38.470Z,100432.84
2023-05-06T13:32:09.305Z,100424.19
2023-05-06T13:34:40.886Z,100436.22
2023-05-06T13:37:11.473Z,100441.53
2023-05-06T13:39:44.535Z,100437.13
2023-05-06T13:42:15.186Z,100442.94
2023-05-06T13:44:45.750Z,100437.63
2023-05-06T13:47:16.216Z,100445.22
2023-05-06T13:49:46.881Z,100436.31
2023-05-06T13:52:17.604Z,100441.44
2023-05-06T13:54:49.796Z,100435.09
2023-05-06T13:57:20.352Z,100447.22
2023-05-06T13:59:50.854Z,100446.34
2023-05-06T14:02:23.501Z,100446.13
2023-05-06T14:04:54.082Z,100458.00
2023-05-06T14:07:27.209Z,100444.66
2023-05-06T14:10:01.878Z,100453.78
2023-05-06T14:12:40.066Z,100452.81
2023-05-06T14:15:11.287Z,100462.78
2023-05-06T14:17:42.180Z,100457.47
2023-05-06T14:20:13.610Z,100448.56
2023-05-06T14:22:47.466Z,100427.56
2023-05-06T14:25:21.874Z,100450.97
2023-05-06T14:27:57.769Z,100448.00
2023-05-06T14:30:28.567Z,100463.06
2023-05-06T14:33:01.911Z,100469.97
2023-05-06T14:35:32.508Z,100467.44
2023-05-06T14:38:03.049Z,100473.56
2023-05-06T14:40:42.413Z,100483.06
2023-05-06T14:43:12.862Z,100468.50
2023-05-06T14:45:45.729Z,100464.94
2023-05-06T14:48:21.175Z,100469.97
2023-05-06T14:50:57.212Z,100461.13
2023-05-06T14:53:27.774Z,100469.34
2023-05-06T14:55:59.854Z,100435.56
2023-05-06T14:58:32.994Z,100483.00
2023-05-06T15:01:03.570Z,100478.53
2023-05-06T15:03:34.114Z,100473.44
2023-05-06T15:06:06.812Z,100470.03
2023-05-06T15:08:37.939Z,100465.66
2023-05-06T15:11:10.345Z,100470.25
2023-05-06T15:13:42.968Z,100466.97
2023-05-06T15:16:13.908Z,100470.44
2023-05-06T15:18:47.031Z,100477.53
2023-05-06T15:21:18.339Z,100477.63
2023-05-06T15:23:52.645Z,100464.47
2023-05-06T15:26:24.926Z,100476.66
2023-05-06T15:28:55.550Z,100481.13
2023-05-06T15:31:26.286Z,100486.06
2023-05-06T15:33:58.849Z,100474.97
2023-05-06T15:36:31.022Z,100444.28
2023-05-06T15:39:04.745Z,100466.06
2023-05-06T15:41:39.354Z,100461.44
2023-05-06T15:44:15.955Z,100445.50
2023-05-06T15:46:51.702Z,100454.13
2023-05-06T15:49:45.461Z,100462.97
2023-05-06T15:52:14.517Z,100465.03
2023-05-06T15:54:50.961Z,100429.38
2023-05-06T15:57:23.171Z,100461.63
2023-05-06T15:59:53.707Z,100462.53
2023-05-06T16:02:33.157Z,100462.72
2023-05-06T16:05:08.520Z,100474.97
2023-05-06T16:07:41.192Z,100492.06
2023-05-06T16:10:17.736Z,100460.88
2023-05-06T16:12:52.914Z,100474.84
2023-05-06T16:15:23.994Z,100481.81
2023-05-06T16:17:54.652Z,100483.56
2023-05-06T16:20:25.242Z,100485.41
2023-05-06T16:22:56.247Z,100476.91
2023-05-06T16:25:28.948Z,100464.81
2023-05-06T16:28:01.362Z,100475.28
2023-05-06T16:30:32.361Z,100482.91
2023-05-06T16:33:03.065Z,100471.06
2023-05-06T16:35:42.790Z,100447.69
2023-05-06T16:38:19.187Z,100469.47
2023-05-06T16:40:52.110Z,100472.81
2023-05-06T16:43:24.156Z,100480.44
2023-05-06T16:45:57.126Z,100469.25
2023-05-06T16:48:29.520Z,100469.13
2023-05-06T16:51:03.270Z,100469.34
2023-05-06T16:53:36.808Z,100480.19
2023-05-06T16:56:07.655Z,100474.97
2023-05-06T16:58:42.983Z,100479.41
2023-05-06T17:01:13.652Z,100477.44
2023-05-06T17:03:44.376Z,100490.25
2023-05-06T17:06:15.170Z,100486.56
2023-05-06T17:08:45.711Z,100490.19
2023-05-06T17:11:18.110Z,100490.63
2023-05-06T17:13:50.725Z,100488.44
2023-05-06T17:16:24.079Z,100481.09
2023-05-06T17:18:59.068Z,100491.28
2023-05-06T17:21:32.259Z,100494.25
2023-05-06T17:24:05.635Z,100494.06
2023-05-06T17:26:36.867Z,100483.69
2023-05-06T17:29:10.426Z,100497.44
2023-05-06T17:31:45.585Z,100494.84
2023-05-06T17:36:52.895Z,100506.16
2023-05-06T17:39:27.303Z,100509.47
2023-05-06T17:42:02.019Z,100518.66
2023-05-06T17:44:38.270Z,100460.19
2023-05-06T17:47:11.754Z,100517.88
2023-05-06T17:49:44.342Z,100516.78
2023-05-06T17:52:18.646Z,100510.38
2023-05-06T17:55:05.809Z,100498.81
2023-05-06T17:57:46.743Z,100511.38
2023-05-06T18:00:22.188Z,100510.94
2023-05-06T18:02:58.098Z,100508.19
2023-05-06T18:05:28.747Z,100502.22
2023-05-06T18:08:06.496Z,100508.88
2023-05-06T18:10:36.966Z,100496.44
2023-05-06T18:13:14.333Z,100491.19
2023-05-06T18:15:47.796Z,100506.56
2023-05-06T18:18:20.979Z,100507.75
2023-05-06T18:20:55.574Z,100510.66
2023-05-06T18:23:26.039Z,100500.19
2023-05-06T18:25:59.560Z,100503.44
2023-05-06T18:28:29.998Z,100506.53
2023-05-06T18:31:02.232Z,100526.38
2023-05-06T18:33:45.021Z,100523.72
2023-05-06T18:36:20.830Z,100521.50
2023-05-06T18:38:51.940Z,100448.59
2023-05-06T18:41:22.644Z,100529.38
2023-05-06T18:43:53.243Z,100529.84
2023-05-06T18:46:25.473Z,100512.34
2023-05-06T18:48:56.826Z,100522.63
2023-05-06T18:51:27.478Z,100519.91
2023-05-06T18:53:58.025Z,100521.75
2023-05-06T18:56:33.487Z,100528.50
2023-05-06T18:59:04.018Z,100525.25
2023-05-06T19:01:36.225Z,100530.38
2023-05-06T19:04:06.972Z,100531.00
2023-05-06T19:06:39.195Z,100540.16
2023-05-06T19:09:09.638Z,100529.00
2023-05-06T19:11:40.053Z,100509.28
2023-05-06T19:14:10.404Z,100545.72
2023-05-06T19:16:42.646Z,100549.13
2023-05-06T19:19:13.209Z,100561.94
2023-05-06T19:21:43.625Z,100554.22
2023-05-06T19:24:14.083Z,100555.97
2023-05-06T19:26:44.505Z,100527.06
2023-05-06T19:29:15.471Z,100558.53
2023-05-06T19:31:47.661Z,100548.16
2023-05-06T19:34:18.198Z,100550.78
2023-05-06T19:36:48.720Z,100566.31
2023-05-06T19:39:19.246Z,100568.19
2023-05-06T19:41:49.753Z,100561.59
2023-05-06T19:44:20.187Z,100567.94
2023-05-06T19:46:56.419Z,100564.41
2023-05-06T19:49:26.964Z,100562.94
2023-05-06T19:51:57.396Z,100558.03
2023-05-06T19:54:27.827Z,100555.78
2023-05-06T19:56:58.211Z,100553.38
2023-05-06T19:59:28.736Z,100557.63
2023-05-06T20:02:03.130Z,100567.09
2023-05-06T20:04:34.388Z,100557.56
2023-05-06T20:07:07.887Z,100558.28
2023-05-06T20:09:38.331Z,100567.50
2023-05-06T20:12:09.594Z,100514.19
2023-05-06T20:14:40.061Z,100559.31
2023-05-06T20:17:12.283Z,100569.38
2023-05-06T20:19:42.657Z,100575.31
2023-05-06T20:22:13.169Z,100572.94
2023-05-06T20:24:45.076Z,100574.94
2023-05-06T20:27:15.651Z,100576.38
2023-05-06T20:29:46.401Z,100572.69
2023-05-06T20:32:18.732Z,100581.59
2023-05-06T20:34:49.333Z,100574.47
2023-05-06T20:37:20.914Z,100534.72
2023-05-06T20:39:51.320Z,100565.59
2023-05-06T20:42:22.709Z,100573.75
2023-05-06T20:44:54.183Z,100543.94
2023-05-06T20:47:26.382Z,100568.88
2023-05-06T20:49:57.573Z,100571.09
2023-05-06T20:52:28.285Z,100580.19
2023-05-06T20:54:58.939Z,100582.03
2023-05-06T20:57:29.527Z,100577.69
2023-05-06T21:00:00.087Z,100603.66
2023-05-06T21:02:40.026Z,100584.63
2023-05-06T21:05:12.793Z,100591.69
2023-05-06T21:07:43.621Z,100588.44
2023-05-06T21:10:15.239Z,100588.78
2023-05-06T21:12:53.323Z,100589.66
2023-05-06T21:15:23.847Z,100552.22
2023-05-06T21:17:56.059Z,100572.38
2023-05-06T21:20:26.570Z,100592.59
2023-05-06T21:22:56.949Z,100591.16
2023-05-06T21:25:27.726Z,100586.91
2023-05-06T21:27:59.238Z,100593.06
2023-05-06T21:30:30.133Z,100593.94
2023-05-06T21:33:03.167Z,100598.91
2023-05-06T21:35:33.829Z,100580.97
2023-05-06T21:38:05.888Z,100603.66
2023-05-06T21:40:36.343Z,100602.06
2023-05-06T21:43:07.029Z,100603.88
2023-05-06T21:45:37.488Z,100600.38
2023-05-06T21:48:10.102Z,100605.81
2023-05-06T21:50:40.793Z,100608.53
2023-05-06T21:53:12.269Z,100599.94
2023-05-06T21:55:44.870Z,100597.38
2023-05-06T21:58:16.089Z,100611.34
2023-05-06T22:00:47.088Z,100592.44
2023-05-06T22:03:19.244Z,100605.53
2023-05-06T22:05:50.064Z,100608.25
2023-05-06T22:08:20.626Z,100612.59
2023-05-06T22:10:51.242Z,100609.13
2023-05-06T22:13:23.553Z,100604.91
2023-05-06T22:15:55.470Z,100608.47
2023-05-06T22:18:28.822Z,100603.22
2023-05-06T22:20:59.517Z,100599.75
2023-05-06T22:23:30.053Z,100604.97
2023-05-06T22:26:00.608Z,100603.28
2023-05-06T22:28:31.186Z,100605.91
2023-05-06T22:31:01.780Z,100605.03
2023-05-06T22:33:33.845Z,100604.16
2023-05-06T22:36:04.305Z,100606.75
2023-05-06T22:38:34.825Z,100611.97
2023-05-06T22:41:05.305Z,100605.03
2023-05-06T22:43:35.779Z,100606.72
2023-05-06T22:46:13.009Z,100602.41
2023-05-06T22:48:46.064Z,100601.53
2023-05-06T22:51:18.190Z,100604.91
2023-05-06T22:53:49.321Z,100604.84
2023-05-06T22:56:20.705Z,100608.34
2023-05-06T22:58:51.274Z,100606.59
2023-05-06T23:01:21.893Z,100599.59
2023-05-06T23:03:54.033Z,100592.59
2023-05-06T23:06:26.570Z,100507.66
2023-05-06T23:08:57.156Z,100597.66
2023-05-06T23:11:28.021Z,100573.28
2023-05-06T23:13:58.524Z,100597.47
2023-05-06T23:16:30.282Z,100592.94
2023-05-06T23:19:02.630Z,100547.16
2023-05-06T23:21:33.286Z,100587.91
2023-05-06T23:24:03.823Z,100593.84
2023-05-06T23:26:34.303Z,100538.38
2023-05-06T23:29:04.768Z,100592.03
2023-05-06T23:31:37.514Z,100588.63
2023-05-06T23:34:09.732Z,100585.25
2023-05-06T23:36:40.245Z,100596.34
2023-05-06T23:39:12.389Z,100593.75
2023-05-06T23:41:43.068Z,100590.34
2023-05-06T23:44:13.563Z,100590.16
2023-05-06T23:46:45.046Z,100593.66
2023-05-06T23:49:17.609Z,100589.28
2023-05-06T23:51:48.091Z,100583.91
2023-05-06T23:54:18.532Z,100576.88
2023-05-06T23:56:49.061Z,100574.34
2023-05-06T23:59:19.465Z,100582.53
